Time,TemperatureF,DewpointF,PressureIn,WindDirection,WindDirectionDegrees,WindSpeedMPH,WindSpeedGustMPH,Humidity,HourlyPrecipIn,Conditions,Clouds,dailyrainin,SoftwareType,DateUTC
2013-01-15 00:00:00,34.4,23.9,30.24,SE,133,0.0,0.0,65,0.00,,---,0.00,VWS V14.01,2013-01-15 05:00:00,
2013-01-15 00:01:00,34.4,23.9,30.24,NNW,344,0.0,0.0,65,0.00,,---,0.00,VWS V14.01,2013-01-15 05:01:00,
2013-01-15 00:02:00,34.4,23.9,30.24,NNW,343,0.0,0.0,65,0.00,,---,0.00,VWS V14.01,2013-01-15 05:02:00,
2013-01-15 00:07:00,34.2,23.4,30.24,NNE,32,0.0,0.0,64,0.00,,---,0.00,VWS V14.01,2013-01-15 05:07:00,
2013-01-15 00:12:00,34.2,23.4,30.24,ESE,103,2.7,2.7,64,0.00,,---,0.00,VWS V14.01,2013-01-15 05:12:00,
2013-01-15 00:17:00,34.2,23.4,30.24,East,89,3.6,3.6,64,0.00,,---,0.00,VWS V14.01,2013-01-15 05:17:00,
2013-01-15 00:22:00,34.1,23.2,30.19,ESE,104,3.1,3.6,64,0.00,,---,0.00,VWS V14.01,2013-01-15 05:22:00,
2013-01-15 00:27:00,34.1,23.2,30.19,East,99,4.5,4.5,64,0.00,,---,0.00,VWS V14.01,2013-01-15 05:27:00,
2013-01-15 00:32:00,34.1,23.2,30.19,ESE,104,4.0,4.0,64,0.00,,---,0.00,VWS V14.01,2013-01-15 05:32:00,
2013-01-15 00:37:00,34.1,23.5,30.22,NE,38,6.3,6.7,65,0.00,,---,0.00,VWS V14.01,2013-01-15 05:37:00,
2013-01-15 00:42:00,34.1,23.2,30.22,ESE,110,4.5,6.3,64,0.00,,---,0.00,VWS V14.01,2013-01-15 05:42:00,
2013-01-15 00:47:00,33.9,23.4,30.22,ENE,76,5.4,5.4,65,0.00,,---,0.00,VWS V14.01,2013-01-15 05:47:00,
2013-01-15 00:52:00,33.9,23.0,30.19,ESE,106,4.0,4.5,64,0.00,,---,0.00,VWS V14.01,2013-01-15 05:52:00,
2013-01-15 00:57:00,33.9,23.4,30.19,East,94,4.0,4.9,65,0.00,,---,0.00,VWS V14.01,2013-01-15 05:57:00,
2013-01-15 01:02:00,33.9,23.4,30.19,ESE,105,3.1,3.6,65,0.00,,---,0.00,VWS V14.01,2013-01-15 06:02:00,
2013-01-15 01:07:00,33.9,23.4,30.19,East,99,4.0,4.0,65,0.00,,---,0.00,VWS V14.01,2013-01-15 06:07:00,
2013-01-15 01:12:00,33.7,23.2,30.19,East,89,0.0,0.0,65,0.00,,---,0.00,VWS V14.01,2013-01-15 06:12:00,
2013-01-15 01:17:00,33.7,23.2,30.19,ENE,70,3.6,3.6,65,0.00,,---,0.00,VWS V14.01,2013-01-15 06:17:00,
2013-01-15 01:22:00,33.7,23.2,30.19,NE,45,3.6,3.6,65,0.00,,---,0.00,VWS V14.01,2013-01-15 06:22:00,
2013-01-15 01:27:00,33.5,23.0,30.19,NE,38,4.5,4.9,65,0.00,,---,0.00,VWS V14.01,2013-01-15 06:27:00,
2013-01-15 01:32:00,33.5,23.0,30.19,NE,52,3.1,3.1,65,0.00,,---,0.00,VWS V14.01,2013-01-15 06:32:00,
2013-01-15 01:37:00,33.5,23.0,30.19,ENE,70,4.0,4.0,65,0.00,,---,0.00,VWS V14.01,2013-01-15 06:37:00,
2013-01-15 01:42:00,33.3,22.9,30.19,NE,48,0.0,0.0,65,0.00,,---,0.00,VWS V14.01,2013-01-15 06:42:00,
2013-01-15 01:47:00,33.3,22.9,30.19,ENE,65,0.0,0.0,65,0.00,,---,0.00,VWS V14.01,2013-01-15 06:47:00,
2013-01-15 01:52:00,33.2,22.7,30.19,ENE,68,0.0,0.0,65,0.00,,---,0.00,VWS V14.01,2013-01-15 06:52:00,
2013-01-15 01:57:00,33.0,22.5,30.19,ENE,71,0.0,0.0,65,0.00,,---,0.00,VWS V14.01,2013-01-15 06:57:00,
2013-01-15 02:02:00,33.0,22.5,30.19,ENE,71,0.0,0.0,65,0.00,,---,0.00,VWS V14.01,2013-01-15 07:02:00,
2013-01-15 02:07:00,32.8,22.3,30.22,ENE,71,0.0,0.0,65,0.00,,---,0.00,VWS V14.01,2013-01-15 07:07:00,
2013-01-15 02:12:00,32.6,22.2,30.22,NE,48,0.0,0.0,65,0.00,,---,0.00,VWS V14.01,2013-01-15 07:12:00,
2013-01-15 02:17:00,32.3,21.8,30.22,NE,43,0.0,0.0,65,0.00,,---,0.00,VWS V14.01,2013-01-15 07:17:00,
2013-01-15 02:22:00,32.3,21.8,30.22,NE,45,0.0,0.0,65,0.00,,---,0.00,VWS V14.01,2013-01-15 07:22:00,
2013-01-15 02:27:00,32.1,21.7,30.22,ENE,71,0.0,2.7,65,0.00,,---,0.00,VWS V14.01,2013-01-15 07:27:00,
2013-01-15 02:32:00,32.1,21.7,30.22,NNW,328,0.0,0.0,65,0.00,,---,0.00,VWS V14.01,2013-01-15 07:32:00,
2013-01-15 02:37:00,31.9,21.9,30.22,NW,304,0.0,0.0,66,0.00,,---,0.00,VWS V14.01,2013-01-15 07:37:00,
2013-01-15 02:42:00,31.5,21.9,30.22,WNW,297,0.0,0.0,67,0.00,,---,0.00,VWS V14.01,2013-01-15 07:42:00,
2013-01-15 02:47:00,31.4,21.7,30.22,NNE,33,3.6,3.6,67,0.00,,---,0.00,VWS V14.01,2013-01-15 07:47:00,
2013-01-15 02:52:00,31.0,22.0,30.19,West,277,0.0,0.0,69,0.00,,---,0.00,VWS V14.01,2013-01-15 07:52:00,
2013-01-15 02:57:00,30.8,21.9,30.19,West,278,0.0,0.0,69,0.00,,---,0.00,VWS V14.01,2013-01-15 07:57:00,
2013-01-15 03:02:00,30.6,21.4,30.19,West,278,0.0,0.0,68,0.00,,---,0.00,VWS V14.01,2013-01-15 08:02:00,
2013-01-15 03:07:00,30.5,21.5,30.19,West,278,0.0,0.0,69,0.00,,---,0.00,VWS V14.01,2013-01-15 08:07:00,
2013-01-15 03:12:00,30.3,21.4,30.19,West,277,0.0,0.0,69,0.00,,---,0.00,VWS V14.01,2013-01-15 08:12:00,
2013-01-15 03:17:00,30.1,21.2,30.19,NE,45,0.0,0.0,69,0.00,,---,0.00,VWS V14.01,2013-01-15 08:17:00,
2013-01-15 03:22:00,29.9,21.0,30.19,ENE,59,0.0,0.0,69,0.00,,---,0.00,VWS V14.01,2013-01-15 08:22:00,
2013-01-15 03:27:00,29.7,20.5,30.19,ENE,59,0.0,0.0,68,0.00,,---,0.00,VWS V14.01,2013-01-15 08:27:00,
2013-01-15 03:32:00,29.7,20.5,30.19,WNW,303,0.0,0.0,68,0.00,,---,0.00,VWS V14.01,2013-01-15 08:32:00,
2013-01-15 03:37:00,29.6,21.0,30.19,NW,305,0.0,0.0,70,0.00,,---,0.00,VWS V14.01,2013-01-15 08:37:00,
2013-01-15 03:42:00,29.4,20.8,30.19,NW,304,0.0,0.0,70,0.00,,---,0.00,VWS V14.01,2013-01-15 08:42:00,
2013-01-15 03:47:00,29.2,21.3,30.19,West,281,0.0,0.0,72,0.00,,---,0.00,VWS V14.01,2013-01-15 08:47:00,
2013-01-15 03:52:00,29.0,22.1,30.19,NW,309,2.7,3.1,75,0.00,,---,0.00,VWS V14.01,2013-01-15 08:52:00,
2013-01-15 03:57:00,28.7,21.8,30.19,NW,304,2.7,3.1,75,0.00,,---,0.00,VWS V14.01,2013-01-15 08:57:00,
2013-01-15 04:02:00,28.3,21.4,30.19,NW,312,0.0,0.0,75,0.00,,---,0.00,VWS V14.01,2013-01-15 09:02:00,
2013-01-15 04:07:00,28.1,21.5,30.19,WNW,292,0.0,0.0,76,0.00,,---,0.00,VWS V14.01,2013-01-15 09:07:00,
2013-01-15 04:12:00,27.9,21.4,30.19,WNW,302,0.0,0.0,76,0.00,,---,0.00,VWS V14.01,2013-01-15 09:12:00,
2013-01-15 04:17:00,27.8,21.2,30.19,WNW,302,0.0,0.0,76,0.00,,---,0.00,VWS V14.01,2013-01-15 09:17:00,
2013-01-15 04:22:00,27.8,21.2,30.19,WNW,298,0.0,0.0,76,0.00,,---,0.00,VWS V14.01,2013-01-15 09:22:00,
2013-01-15 04:27:00,27.8,21.2,30.19,WNW,290,0.0,0.0,76,0.00,,---,0.00,VWS V14.01,2013-01-15 09:27:00,
2013-01-15 04:32:00,27.8,20.6,30.19,NNW,345,0.0,0.0,74,0.00,,---,0.00,VWS V14.01,2013-01-15 09:32:00,
2013-01-15 04:37:00,27.8,19.9,30.19,NNW,342,0.0,0.0,72,0.00,,---,0.00,VWS V14.01,2013-01-15 09:37:00,
2013-01-15 04:42:00,28.1,20.6,30.19,NW,307,0.0,0.0,73,0.00,,---,0.00,VWS V14.01,2013-01-15 09:42:00,
2013-01-15 04:47:00,28.3,20.4,30.19,ENE,57,0.0,0.0,72,0.00,,---,0.00,VWS V14.01,2013-01-15 09:47:00,
2013-01-15 04:52:00,28.5,20.3,30.19,NE,49,0.0,0.0,71,0.00,,---,0.00,VWS V14.01,2013-01-15 09:52:00,
2013-01-15 04:57:00,28.7,20.5,30.19,WNW,284,0.0,0.0,71,0.00,,---,0.00,VWS V14.01,2013-01-15 09:57:00,
2013-01-15 05:02:00,28.7,20.1,30.19,East,91,3.1,3.1,70,0.00,,---,0.00,VWS V14.01,2013-01-15 10:02:00,
2013-01-15 05:07:00,29.0,20.5,30.22,ENE,64,0.0,0.0,70,0.00,,---,0.00,VWS V14.01,2013-01-15 10:07:00,
2013-01-15 05:12:00,29.0,20.5,30.22,ESE,114,0.0,0.0,70,0.00,,---,0.00,VWS V14.01,2013-01-15 10:12:00,
2013-01-15 05:17:00,28.8,20.3,30.22,ESE,114,0.0,0.0,70,0.00,,---,0.00,VWS V14.01,2013-01-15 10:17:00,
2013-01-15 05:22:00,28.8,20.3,30.22,ESE,114,0.0,0.0,70,0.00,,---,0.00,VWS V14.01,2013-01-15 10:22:00,
2013-01-15 05:27:00,28.8,20.3,30.22,ESE,114,0.0,0.0,70,0.00,,---,0.00,VWS V14.01,2013-01-15 10:27:00,
2013-01-15 05:32:00,29.0,20.5,30.22,North,356,0.0,0.0,70,0.00,,---,0.00,VWS V14.01,2013-01-15 10:32:00,
2013-01-15 05:37:00,29.0,20.1,30.22,North,356,0.0,0.0,69,0.00,,---,0.00,VWS V14.01,2013-01-15 10:37:00,
2013-01-15 05:42:00,28.8,20.0,30.22,North,356,0.0,0.0,69,0.00,,---,0.00,VWS V14.01,2013-01-15 10:42:00,
2013-01-15 05:47:00,28.8,20.0,30.22,East,87,0.0,0.0,69,0.00,,---,0.00,VWS V14.01,2013-01-15 10:47:00,
2013-01-15 05:52:00,29.0,20.1,30.22,ENE,73,4.0,4.0,69,0.00,,---,0.00,VWS V14.01,2013-01-15 10:52:00,
2013-01-15 05:57:00,29.2,20.3,30.22,ENE,68,0.0,0.0,69,0.00,,---,0.00,VWS V14.01,2013-01-15 10:57:00,
2013-01-15 06:02:00,29.2,20.3,30.22,ENE,68,0.0,0.0,69,0.00,,---,0.00,VWS V14.01,2013-01-15 11:02:00,
2013-01-15 06:07:00,29.0,20.1,30.22,East,98,3.1,3.1,69,0.00,,---,0.00,VWS V14.01,2013-01-15 11:07:00,
2013-01-15 06:12:00,28.8,20.0,30.22,ENE,78,0.0,0.0,69,0.00,,---,0.00,VWS V14.01,2013-01-15 11:12:00,
2013-01-15 06:17:00,28.7,19.8,30.22,NE,51,0.0,0.0,69,0.00,,---,0.00,VWS V14.01,2013-01-15 11:17:00,
2013-01-15 06:22:00,28.7,20.1,30.22,NNE,29,3.6,4.0,70,0.00,,---,0.00,VWS V14.01,2013-01-15 11:22:00,
2013-01-15 06:27:00,28.5,20.0,30.22,NE,42,3.1,4.0,70,0.00,,---,0.00,VWS V14.01,2013-01-15 11:27:00,
2013-01-15 06:32:00,28.5,20.0,30.22,NE,49,0.0,3.1,70,0.00,,---,0.00,VWS V14.01,2013-01-15 11:32:00,
2013-01-15 06:37:00,28.3,20.1,30.22,ENE,68,0.0,0.0,71,0.00,,---,0.00,VWS V14.01,2013-01-15 11:37:00,
2013-01-15 06:42:00,28.3,20.1,30.22,NE,42,0.0,0.0,71,0.00,,---,0.00,VWS V14.01,2013-01-15 11:42:00,
2013-01-15 06:46:00,28.3,20.4,30.22,NE,43,0.0,0.0,72,0.00,,---,0.00,VWS V14.01,2013-01-15 11:46:00,
2013-01-15 06:51:00,28.1,21.2,30.22,NNW,342,3.6,4.5,75,0.00,,---,0.00,VWS V14.01,2013-01-15 11:51:00,
2013-01-15 06:56:00,27.8,21.2,30.22,NNE,32,0.0,0.0,76,0.00,,---,0.00,VWS V14.01,2013-01-15 11:56:00,
2013-01-15 07:01:00,27.8,21.2,30.22,NW,322,0.0,0.0,76,0.00,,---,0.00,VWS V14.01,2013-01-15 12:01:00,
2013-01-15 07:06:00,27.6,21.3,30.24,WNW,295,0.0,0.0,77,0.00,,---,0.00,VWS V14.01,2013-01-15 12:06:00,
2013-01-15 07:11:00,27.6,21.3,30.24,WNW,295,0.0,0.0,77,0.00,,---,0.00,VWS V14.01,2013-01-15 12:11:00,
2013-01-15 07:16:00,27.4,21.1,30.24,WNW,295,0.0,0.0,77,0.00,,---,0.00,VWS V14.01,2013-01-15 12:16:00,
2013-01-15 07:21:00,27.4,21.1,30.24,WNW,295,0.0,0.0,77,0.00,,---,0.00,VWS V14.01,2013-01-15 12:21:00,
2013-01-15 07:26:00,27.4,21.1,30.24,WNW,295,0.0,0.0,77,0.00,,---,0.00,VWS V14.01,2013-01-15 12:26:00,
2013-01-15 07:31:00,27.2,21.0,30.24,WNW,295,0.0,0.0,77,0.00,,---,0.00,VWS V14.01,2013-01-15 12:31:00,
2013-01-15 07:36:00,27.2,21.0,30.24,WNW,295,0.0,0.0,77,0.00,,---,0.00,VWS V14.01,2013-01-15 12:36:00,
2013-01-15 07:41:00,27.2,21.0,30.24,ENE,64,0.0,0.0,77,0.00,,---,0.00,VWS V14.01,2013-01-15 12:41:00,
2013-01-15 07:46:00,27.2,21.0,30.24,NE,48,3.1,3.6,77,0.00,,---,0.00,VWS V14.01,2013-01-15 12:46:00,
2013-01-15 07:51:00,27.2,21.0,30.27,NNW,338,0.0,0.0,77,0.00,,---,0.00,VWS V14.01,2013-01-15 12:51:00,
2013-01-15 07:56:00,27.2,21.3,30.27,NE,38,0.0,0.0,78,0.00,,---,0.00,VWS V14.01,2013-01-15 12:56:00,
2013-01-15 08:01:00,27.0,21.1,30.27,NNE,19,3.1,4.9,78,0.00,,---,0.00,VWS V14.01,2013-01-15 13:01:00,
2013-01-15 08:06:00,27.0,20.8,30.27,East,82,0.0,0.0,77,0.00,,---,0.00,VWS V14.01,2013-01-15 13:06:00,
2013-01-15 08:11:00,27.2,21.0,30.27,ENE,60,0.0,0.0,77,0.00,,---,0.00,VWS V14.01,2013-01-15 13:11:00,
2013-01-15 08:16:00,27.4,21.1,30.27,East,97,0.0,0.0,77,0.00,,---,0.00,VWS V14.01,2013-01-15 13:16:00,
2013-01-15 08:21:00,27.2,21.0,30.27,East,97,0.0,0.0,77,0.00,,---,0.00,VWS V14.01,2013-01-15 13:21:00,
2013-01-15 08:26:00,27.2,21.0,30.27,North,351,0.0,0.0,77,0.00,,---,0.00,VWS V14.01,2013-01-15 13:26:00,
2013-01-15 08:31:00,27.2,21.0,30.27,NE,43,4.9,4.9,77,0.00,,---,0.00,VWS V14.01,2013-01-15 13:31:00,
2013-01-15 08:36:00,27.2,21.0,30.27,NE,40,0.0,0.0,77,0.00,,---,0.00,VWS V14.01,2013-01-15 13:36:00,
2013-01-15 08:41:00,27.4,20.8,30.27,NNW,342,3.1,3.6,76,0.00,,---,0.00,VWS V14.01,2013-01-15 13:41:00,
2013-01-15 08:46:00,27.6,21.3,30.27,North,351,0.0,0.0,77,0.00,,---,0.00,VWS V14.01,2013-01-15 13:46:00,
2013-01-15 08:51:00,27.6,21.3,30.27,East,91,0.0,0.0,77,0.00,,---,0.00,VWS V14.01,2013-01-15 13:51:00,
2013-01-15 08:56:00,27.8,21.5,30.27,North,351,0.0,0.0,77,0.00,,---,0.00,VWS V14.01,2013-01-15 13:56:00,
2013-01-15 09:01:00,27.9,22.0,30.27,North,2,0.0,0.0,78,0.00,,---,0.00,VWS V14.01,2013-01-15 14:01:00,
2013-01-15 09:06:00,28.1,22.2,30.27,NW,304,0.0,0.0,78,0.00,,---,0.00,VWS V14.01,2013-01-15 14:06:00,
2013-01-15 09:11:00,28.3,22.3,30.27,NW,305,0.0,0.0,78,0.00,,---,0.00,VWS V14.01,2013-01-15 14:11:00,
2013-01-15 09:16:00,28.7,22.4,30.27,North,351,0.0,4.5,77,0.00,,---,0.00,VWS V14.01,2013-01-15 14:16:00,
2013-01-15 09:21:00,28.8,22.5,30.27,North,356,0.0,0.0,77,0.00,,---,0.00,VWS V14.01,2013-01-15 14:21:00,
2013-01-15 09:26:00,29.2,22.9,30.27,NE,41,0.0,0.0,77,0.00,,---,0.00,VWS V14.01,2013-01-15 14:26:00,
2013-01-15 09:31:00,29.6,22.9,30.27,NE,55,6.3,6.3,76,0.00,,---,0.00,VWS V14.01,2013-01-15 14:31:00,
2013-01-15 09:36:00,29.9,23.3,30.27,ENE,65,2.7,4.5,76,0.00,,---,0.00,VWS V14.01,2013-01-15 14:36:00,
2013-01-15 09:41:00,30.1,23.1,30.27,ENE,65,3.6,4.5,75,0.00,,---,0.00,VWS V14.01,2013-01-15 14:41:00,
2013-01-15 09:46:00,30.3,23.3,30.27,East,79,0.0,0.0,75,0.00,,---,0.00,VWS V14.01,2013-01-15 14:46:00,
2013-01-15 09:51:00,30.6,23.7,30.27,North,4,3.6,3.6,75,0.00,,---,0.00,VWS V14.01,2013-01-15 14:51:00,
2013-01-15 09:56:00,30.8,23.8,30.27,NE,36,3.6,5.8,75,0.00,,---,0.00,VWS V14.01,2013-01-15 14:56:00,
2013-01-15 10:01:00,30.8,23.2,30.27,NNE,33,0.0,3.1,73,0.00,,---,0.00,VWS V14.01,2013-01-15 15:01:00,
2013-01-15 10:06:00,31.0,23.4,30.30,NE,41,0.0,3.1,73,0.00,,---,0.00,VWS V14.01,2013-01-15 15:06:00,
2013-01-15 10:11:00,31.2,23.5,30.30,NNW,344,4.5,5.4,73,0.00,,---,0.00,VWS V14.01,2013-01-15 15:11:00,
2013-01-15 10:16:00,31.2,23.5,30.30,NNW,347,0.0,0.0,73,0.00,,---,0.00,VWS V14.01,2013-01-15 15:16:00,
2013-01-15 10:21:00,31.2,23.2,30.27,NNE,28,0.0,3.6,72,0.00,,---,0.00,VWS V14.01,2013-01-15 15:21:00,
2013-01-15 10:26:00,31.4,23.4,30.27,NNW,341,4.9,6.3,72,0.00,,---,0.00,VWS V14.01,2013-01-15 15:26:00,
2013-01-15 10:31:00,31.5,23.6,30.27,NNE,13,3.1,4.5,72,0.00,,---,0.00,VWS V14.01,2013-01-15 15:31:00,
2013-01-15 10:36:00,31.5,23.6,30.30,NNE,15,0.0,5.4,72,0.00,,---,0.00,VWS V14.01,2013-01-15 15:36:00,
2013-01-15 10:41:00,31.7,23.7,30.30,North,10,4.0,4.9,72,0.00,,---,0.00,VWS V14.01,2013-01-15 15:41:00,
2013-01-15 10:46:00,31.9,23.9,30.30,NW,325,0.0,4.9,72,0.00,,---,0.00,VWS V14.01,2013-01-15 15:46:00,
2013-01-15 10:51:00,32.1,23.8,30.30,North,351,4.5,5.8,71,0.00,,---,0.00,VWS V14.01,2013-01-15 15:51:00,
2013-01-15 10:56:00,32.1,23.4,30.30,ENE,62,0.0,3.1,70,0.00,,---,0.00,VWS V14.01,2013-01-15 15:56:00,
2013-01-15 11:01:00,32.1,23.1,30.30,NNE,30,0.0,0.0,69,0.00,,---,0.00,VWS V14.01,2013-01-15 16:01:00,
2013-01-15 11:06:00,32.1,23.1,30.27,ENE,64,0.0,0.0,69,0.00,,---,0.00,VWS V14.01,2013-01-15 16:06:00,
2013-01-15 11:11:00,32.3,23.2,30.27,ENE,78,0.0,2.7,69,0.00,,---,0.00,VWS V14.01,2013-01-15 16:11:00,
2013-01-15 11:16:00,32.4,23.4,30.27,ESE,116,3.1,3.1,69,0.00,,---,0.00,VWS V14.01,2013-01-15 16:16:00,
2013-01-15 11:21:00,32.6,23.2,30.27,ESE,102,3.1,4.0,68,0.00,,---,0.00,VWS V14.01,2013-01-15 16:21:00,
2013-01-15 11:26:00,32.3,22.5,30.27,ESE,113,0.0,4.5,67,0.00,,---,0.00,VWS V14.01,2013-01-15 16:26:00,
2013-01-15 11:31:00,32.3,22.9,30.27,ESE,113,0.0,0.0,68,0.00,,---,0.00,VWS V14.01,2013-01-15 16:31:00,
2013-01-15 11:36:00,32.6,23.2,30.27,ESE,113,0.0,0.0,68,0.00,,---,0.00,VWS V14.01,2013-01-15 16:36:00,
2013-01-15 11:41:00,32.4,22.7,30.27,ESE,113,0.0,0.0,67,0.00,,---,0.00,VWS V14.01,2013-01-15 16:41:00,
2013-01-15 11:46:00,32.6,22.9,30.27,SSW,209,0.0,0.0,67,0.00,,---,0.00,VWS V14.01,2013-01-15 16:46:00,
2013-01-15 11:51:00,32.6,22.9,30.24,ESE,107,0.0,0.0,67,0.00,,---,0.00,VWS V14.01,2013-01-15 16:51:00,
2013-01-15 11:56:00,32.8,23.1,30.24,SSW,200,4.0,4.9,67,0.00,,---,0.00,VWS V14.01,2013-01-15 16:56:00,
2013-01-15 12:01:00,32.8,22.7,30.24,East,80,3.1,4.0,66,0.00,,---,0.00,VWS V14.01,2013-01-15 17:01:00,
2013-01-15 12:06:00,32.8,22.7,30.24,ESE,123,2.7,3.6,66,0.00,,---,0.00,VWS V14.01,2013-01-15 17:06:00,
2013-01-15 12:11:00,32.6,22.5,30.24,East,98,4.0,4.0,66,0.00,,---,0.00,VWS V14.01,2013-01-15 17:11:00,
2013-01-15 12:16:00,32.4,22.4,30.24,East,91,3.1,3.6,66,0.00,,---,0.00,VWS V14.01,2013-01-15 17:16:00,
2013-01-15 12:21:00,32.4,22.4,30.24,ENE,74,2.7,2.7,66,0.00,,---,0.00,VWS V14.01,2013-01-15 17:21:00,
2013-01-15 12:26:00,32.6,22.5,30.24,ENE,74,0.0,0.0,66,0.00,,---,0.00,VWS V14.01,2013-01-15 17:26:00,
2013-01-15 12:31:00,32.6,22.5,30.24,ENE,74,0.0,0.0,66,0.00,,---,0.00,VWS V14.01,2013-01-15 17:31:00,
2013-01-15 12:36:00,32.4,22.4,30.24,ENE,74,0.0,0.0,66,0.00,,---,0.00,VWS V14.01,2013-01-15 17:36:00,
2013-01-15 12:41:00,32.6,22.5,30.24,NW,318,2.7,4.0,66,0.00,,---,0.00,VWS V14.01,2013-01-15 17:41:00,
2013-01-15 12:46:00,33.0,23.2,30.24,West,280,0.0,0.0,67,0.00,,---,0.00,VWS V14.01,2013-01-15 17:46:00,
2013-01-15 12:51:00,33.2,23.0,30.24,West,280,0.0,0.0,66,0.00,,---,0.00,VWS V14.01,2013-01-15 17:51:00,
2013-01-15 12:56:00,33.2,23.0,30.24,NW,315,3.6,3.6,66,0.00,,---,0.00,VWS V14.01,2013-01-15 17:56:00,
2013-01-15 13:01:00,33.2,23.0,30.24,NW,308,0.0,0.0,66,0.00,,---,0.00,VWS V14.01,2013-01-15 18:01:00,
2013-01-15 13:06:00,33.3,23.2,30.22,NE,47,0.0,0.0,66,0.00,,---,0.00,VWS V14.01,2013-01-15 18:06:00,
2013-01-15 13:11:00,33.2,23.0,30.22,NE,56,0.0,0.0,66,0.00,,---,0.00,VWS V14.01,2013-01-15 18:11:00,
2013-01-15 13:16:00,33.0,22.9,30.22,ENE,65,0.0,0.0,66,0.00,,---,0.00,VWS V14.01,2013-01-15 18:16:00,
2013-01-15 13:21:00,33.2,23.0,30.22,SE,129,0.0,0.0,66,0.00,,---,0.00,VWS V14.01,2013-01-15 18:21:00,
2013-01-15 13:26:00,33.3,23.2,30.22,ESE,104,0.0,0.0,66,0.00,,---,0.00,VWS V14.01,2013-01-15 18:26:00,
2013-01-15 13:31:00,33.3,23.2,30.22,SE,127,0.0,3.1,66,0.00,,---,0.00,VWS V14.01,2013-01-15 18:31:00,
2013-01-15 13:36:00,34.5,24.4,30.22,NE,55,0.0,0.0,66,0.00,,---,0.00,VWS V14.01,2013-01-15 18:36:00,
2013-01-15 13:41:00,34.5,24.4,30.22,North,2,0.0,0.0,66,0.00,,---,0.00,VWS V14.01,2013-01-15 18:41:00,
2013-01-15 13:46:00,34.7,24.5,30.22,West,265,0.0,0.0,66,0.00,,---,0.00,VWS V14.01,2013-01-15 18:46:00,
2013-01-15 13:51:00,34.5,24.4,30.19,ESE,112,0.0,0.0,66,0.00,,---,0.00,VWS V14.01,2013-01-15 18:51:00,
2013-01-15 13:56:00,34.3,24.2,30.19,ESE,113,0.0,0.0,66,0.00,,---,0.00,VWS V14.01,2013-01-15 18:56:00,
2013-01-15 14:01:00,34.3,24.2,30.19,ESE,114,3.1,3.1,66,0.00,,---,0.00,VWS V14.01,2013-01-15 19:01:00,
2013-01-15 14:06:00,34.3,24.2,30.22,SE,125,0.0,0.0,66,0.00,,---,0.00,VWS V14.01,2013-01-15 19:06:00,
2013-01-15 14:11:00,34.2,24.0,30.22,ESE,107,0.0,0.0,66,0.00,,---,0.00,VWS V14.01,2013-01-15 19:11:00,
2013-01-15 14:16:00,34.2,24.0,30.22,ESE,107,0.0,0.0,66,0.00,,---,0.00,VWS V14.01,2013-01-15 19:16:00,
2013-01-15 14:21:00,34.3,24.2,30.22,ESE,107,0.0,0.0,66,0.00,,---,0.00,VWS V14.01,2013-01-15 19:21:00,
2013-01-15 14:26:00,34.3,24.2,30.22,ESE,107,0.0,0.0,66,0.00,,---,0.00,VWS V14.01,2013-01-15 19:26:00,
2013-01-15 14:31:00,34.5,24.4,30.22,SE,131,0.0,0.0,66,0.00,,---,0.00,VWS V14.01,2013-01-15 19:31:00,
2013-01-15 14:36:00,34.5,24.4,30.22,SE,131,0.0,0.0,66,0.00,,---,0.00,VWS V14.01,2013-01-15 19:36:00,
2013-01-15 14:41:00,34.5,24.4,30.22,SE,131,0.0,0.0,66,0.00,,---,0.00,VWS V14.01,2013-01-15 19:41:00,
2013-01-15 14:46:00,34.7,24.5,30.22,SE,131,0.0,0.0,66,0.00,,---,0.00,VWS V14.01,2013-01-15 19:46:00,
2013-01-15 14:51:00,34.9,24.3,30.22,SE,131,0.0,0.0,65,0.00,,---,0.00,VWS V14.01,2013-01-15 19:51:00,
2013-01-15 14:56:00,34.9,24.3,30.22,SE,131,0.0,0.0,65,0.00,,---,0.00,VWS V14.01,2013-01-15 19:56:00,
2013-01-15 15:01:00,34.9,24.3,30.22,SE,131,0.0,0.0,65,0.00,,---,0.00,VWS V14.01,2013-01-15 20:01:00,
2013-01-15 15:06:00,34.9,24.3,30.22,SE,131,0.0,0.0,65,0.00,,---,0.00,VWS V14.01,2013-01-15 20:06:00,
2013-01-15 15:11:00,34.7,24.1,30.22,SE,131,0.0,0.0,65,0.00,,---,0.00,VWS V14.01,2013-01-15 20:11:00,
2013-01-15 15:16:00,34.7,24.1,30.22,SSE,148,0.0,0.0,65,0.00,,---,0.00,VWS V14.01,2013-01-15 20:16:00,
2013-01-15 15:21:00,34.7,24.5,30.22,SSE,153,0.0,0.0,66,0.00,,---,0.00,VWS V14.01,2013-01-15 20:21:00,
2013-01-15 15:26:00,34.7,24.5,30.22,SSE,153,0.0,0.0,66,0.00,,---,0.00,VWS V14.01,2013-01-15 20:26:00,
2013-01-15 15:31:00,34.9,24.7,30.22,SSE,153,0.0,0.0,66,0.00,,---,0.00,VWS V14.01,2013-01-15 20:31:00,
2013-01-15 15:36:00,34.9,24.7,30.22,SSE,153,0.0,0.0,66,0.00,,---,0.00,VWS V14.01,2013-01-15 20:36:00,
2013-01-15 15:41:00,34.9,24.3,30.22,SSE,154,0.0,0.0,65,0.00,,---,0.00,VWS V14.01,2013-01-15 20:41:00,
2013-01-15 15:46:00,34.7,24.1,30.22,West,264,3.6,3.6,65,0.00,,---,0.00,VWS V14.01,2013-01-15 20:46:00,
2013-01-15 15:51:00,34.5,24.0,30.22,WSW,250,3.6,4.0,65,0.00,,---,0.00,VWS V14.01,2013-01-15 20:51:00,
2013-01-15 15:56:00,34.5,24.4,30.22,SW,228,0.0,0.0,66,0.00,,---,0.00,VWS V14.01,2013-01-15 20:56:00,
2013-01-15 16:01:00,34.5,24.0,30.22,SW,228,0.0,0.0,65,0.00,,---,0.00,VWS V14.01,2013-01-15 21:01:00,
2013-01-15 16:06:00,34.5,24.0,30.19,SW,228,0.0,0.0,65,0.00,,---,0.00,VWS V14.01,2013-01-15 21:06:00,
2013-01-15 16:11:00,34.5,24.4,30.19,SW,227,0.0,0.0,66,0.00,,---,0.00,VWS V14.01,2013-01-15 21:11:00,
2013-01-15 16:16:00,34.3,24.2,30.19,SW,227,0.0,0.0,66,0.00,,---,0.00,VWS V14.01,2013-01-15 21:16:00,
2013-01-15 16:21:00,34.3,24.2,30.22,SW,227,0.0,0.0,66,0.00,,---,0.00,VWS V14.01,2013-01-15 21:21:00,
2013-01-15 16:26:00,34.3,24.2,30.22,SW,227,0.0,0.0,66,0.00,,---,0.00,VWS V14.01,2013-01-15 21:26:00,
2013-01-15 16:31:00,34.3,24.2,30.22,SW,227,0.0,0.0,66,0.00,,---,0.00,VWS V14.01,2013-01-15 21:31:00,
2013-01-15 16:36:00,34.3,24.2,30.22,WSW,251,0.0,0.0,66,0.00,,---,0.00,VWS V14.01,2013-01-15 21:36:00,
2013-01-15 16:41:00,34.2,24.0,30.22,WSW,251,0.0,0.0,66,0.00,,---,0.00,VWS V14.01,2013-01-15 21:41:00,
2013-01-15 16:46:00,34.0,23.8,30.22,WSW,251,0.0,0.0,66,0.00,,---,0.00,VWS V14.01,2013-01-15 21:46:00,
2013-01-15 16:51:00,34.0,23.8,30.22,WSW,251,0.0,0.0,66,0.00,,---,0.00,VWS V14.01,2013-01-15 21:51:00,
2013-01-15 16:56:00,33.8,24.4,30.22,WSW,251,0.0,0.0,68,0.00,,---,0.00,VWS V14.01,2013-01-15 21:56:00,
2013-01-15 17:01:00,33.6,24.2,30.22,WNW,291,0.0,0.0,68,0.00,,---,0.00,VWS V14.01,2013-01-15 22:01:00,
2013-01-15 17:06:00,33.4,24.0,30.22,WNW,291,0.0,0.0,68,0.00,,---,0.00,VWS V14.01,2013-01-15 22:06:00,
2013-01-15 17:11:00,33.3,23.9,30.22,WNW,291,0.0,0.0,68,0.00,,---,0.00,VWS V14.01,2013-01-15 22:11:00,
2013-01-15 17:16:00,33.1,23.7,30.22,WNW,291,0.0,0.0,68,0.00,,---,0.00,VWS V14.01,2013-01-15 22:16:00,
2013-01-15 17:21:00,32.9,23.5,30.22,WNW,291,0.0,0.0,68,0.00,,---,0.00,VWS V14.01,2013-01-15 22:21:00,
2013-01-15 17:26:00,32.9,24.2,30.22,WNW,291,0.0,0.0,70,0.00,,---,0.00,VWS V14.01,2013-01-15 22:26:00,
2013-01-15 17:31:00,32.7,24.4,30.22,WNW,291,0.0,0.0,71,0.00,,---,0.00,VWS V14.01,2013-01-15 22:31:00,
2013-01-15 17:36:00,32.7,24.4,30.22,West,268,3.1,3.1,71,0.00,,---,0.00,VWS V14.01,2013-01-15 22:36:00,
2013-01-15 17:41:00,32.5,24.2,30.22,West,268,0.0,0.0,71,0.00,,---,0.00,VWS V14.01,2013-01-15 22:41:00,
2013-01-15 17:46:00,32.5,24.9,30.22,West,268,0.0,0.0,73,0.00,,---,0.00,VWS V14.01,2013-01-15 22:46:00,
2013-01-15 17:51:00,32.5,24.9,30.22,West,268,0.0,0.0,73,0.00,,---,0.00,VWS V14.01,2013-01-15 22:51:00,
2013-01-15 17:56:00,32.5,24.9,30.22,West,268,0.0,0.0,73,0.00,,---,0.00,VWS V14.01,2013-01-15 22:56:00,
2013-01-15 18:01:00,32.5,24.5,30.22,West,264,0.0,0.0,72,0.00,,---,0.00,VWS V14.01,2013-01-15 23:01:00,
2013-01-15 18:06:00,32.5,24.5,30.22,West,264,0.0,0.0,72,0.00,,---,0.00,VWS V14.01,2013-01-15 23:06:00,
2013-01-15 18:11:00,32.5,24.5,30.22,West,264,0.0,0.0,72,0.00,,---,0.00,VWS V14.01,2013-01-15 23:11:00,
2013-01-15 18:16:00,32.5,24.9,30.22,West,264,0.0,0.0,73,0.00,,---,0.00,VWS V14.01,2013-01-15 23:16:00,
2013-01-15 18:21:00,32.5,24.9,30.22,West,264,0.0,0.0,73,0.00,,---,0.00,VWS V14.01,2013-01-15 23:21:00,
2013-01-15 18:26:00,32.5,24.9,30.22,West,264,0.0,0.0,73,0.00,,---,0.00,VWS V14.01,2013-01-15 23:26:00,
2013-01-15 18:31:00,32.5,24.9,30.22,West,264,0.0,0.0,73,0.00,,---,0.00,VWS V14.01,2013-01-15 23:31:00,
2013-01-15 18:36:00,32.7,25.0,30.22,West,264,0.0,0.0,73,0.00,,---,0.00,VWS V14.01,2013-01-15 23:36:00,
2013-01-15 18:41:00,32.7,25.0,30.22,West,264,0.0,0.0,73,0.00,,---,0.00,VWS V14.01,2013-01-15 23:41:00,
2013-01-15 18:46:00,32.7,25.7,30.22,West,264,0.0,0.0,75,0.00,,---,0.00,VWS V14.01,2013-01-15 23:46:00,
2013-01-15 18:51:00,32.7,25.4,30.22,West,264,0.0,0.0,74,0.00,,---,0.00,VWS V14.01,2013-01-15 23:51:00,
2013-01-15 18:56:00,32.7,25.4,30.22,West,264,0.0,0.0,74,0.00,,---,0.00,VWS V14.01,2013-01-15 23:56:00,
2013-01-15 19:01:00,32.7,25.0,30.22,West,264,0.0,0.0,73,0.00,,---,0.00,VWS V14.01,2013-01-16 00:01:00,
2013-01-15 19:06:00,32.7,26.0,30.19,West,264,0.0,0.0,76,0.00,,---,0.00,VWS V14.01,2013-01-16 00:06:00,
2013-01-15 19:11:00,32.7,26.3,30.19,West,264,0.0,0.0,77,0.00,,---,0.00,VWS V14.01,2013-01-16 00:11:00,
2013-01-15 19:16:00,32.5,25.8,30.19,West,264,0.0,0.0,76,0.00,,---,0.00,VWS V14.01,2013-01-16 00:16:00,
2013-01-15 19:21:00,32.5,25.8,30.19,WNW,292,0.0,0.0,76,0.00,,---,0.00,VWS V14.01,2013-01-16 00:21:00,
2013-01-15 19:26:00,32.4,25.6,30.19,WNW,293,0.0,0.0,76,0.00,,---,0.00,VWS V14.01,2013-01-16 00:26:00,
2013-01-15 19:31:00,32.4,25.6,30.19,WNW,293,0.0,0.0,76,0.00,,---,0.00,VWS V14.01,2013-01-16 00:31:00,
2013-01-15 19:36:00,32.2,25.2,30.19,WNW,293,0.0,0.0,75,0.00,,---,0.00,VWS V14.01,2013-01-16 00:36:00,
2013-01-15 19:41:00,32.2,25.2,30.19,WNW,292,0.0,0.0,75,0.00,,---,0.00,VWS V14.01,2013-01-16 00:41:00,
2013-01-15 19:46:00,32.2,25.2,30.19,WNW,284,0.0,0.0,75,0.00,,---,0.00,VWS V14.01,2013-01-16 00:46:00,
2013-01-15 19:51:00,32.2,25.5,30.19,WNW,284,0.0,0.0,76,0.00,,---,0.00,VWS V14.01,2013-01-16 00:51:00,
2013-01-15 19:56:00,32.2,25.5,30.19,WNW,284,0.0,0.0,76,0.00,,---,0.00,VWS V14.01,2013-01-16 00:56:00,
2013-01-15 20:01:00,32.2,25.5,30.19,WNW,284,0.0,0.0,76,0.00,,---,0.00,VWS V14.01,2013-01-16 01:01:00,
2013-01-15 20:06:00,32.2,25.5,30.19,SW,230,0.0,0.0,76,0.00,,---,0.00,VWS V14.01,2013-01-16 01:06:00,
2013-01-15 20:11:00,32.2,25.2,30.19,SW,230,0.0,0.0,75,0.00,,---,0.00,VWS V14.01,2013-01-16 01:11:00,
2013-01-15 20:16:00,32.4,25.3,30.19,SW,230,0.0,0.0,75,0.00,,---,0.00,VWS V14.01,2013-01-16 01:16:00,
2013-01-15 20:21:00,32.4,25.3,30.19,SW,230,0.0,0.0,75,0.00,,---,0.00,VWS V14.01,2013-01-16 01:21:00,
2013-01-15 20:26:00,32.5,25.8,30.19,SW,230,0.0,0.0,76,0.00,,---,0.00,VWS V14.01,2013-01-16 01:26:00,
2013-01-15 20:31:00,32.5,25.5,30.19,North,351,0.0,0.0,75,0.00,,---,0.00,VWS V14.01,2013-01-16 01:31:00,
2013-01-15 20:36:00,32.5,25.5,30.16,NE,43,0.0,0.0,75,0.00,,---,0.00,VWS V14.01,2013-01-16 01:36:00,
2013-01-15 20:41:00,32.5,25.5,30.16,NE,43,0.0,0.0,75,0.00,,---,0.00,VWS V14.01,2013-01-16 01:41:00,
2013-01-15 20:46:00,32.5,25.5,30.16,WSW,258,0.0,0.0,75,0.00,,---,0.00,VWS V14.01,2013-01-16 01:46:00,
2013-01-15 20:51:00,32.5,25.5,30.19,WSW,248,0.0,0.0,75,0.00,,---,0.00,VWS V14.01,2013-01-16 01:51:00,
2013-01-15 20:56:00,32.7,25.7,30.19,WSW,248,0.0,0.0,75,0.00,,---,0.00,VWS V14.01,2013-01-16 01:56:00,
2013-01-15 21:01:00,32.7,25.7,30.19,WSW,248,0.0,0.0,75,0.00,,---,0.00,VWS V14.01,2013-01-16 02:01:00,
2013-01-15 21:06:00,32.7,25.7,30.19,WSW,248,0.0,0.0,75,0.00,,---,0.00,VWS V14.01,2013-01-16 02:06:00,
2013-01-15 21:11:00,32.7,25.7,30.19,WSW,248,0.0,0.0,75,0.00,,---,0.00,VWS V14.01,2013-01-16 02:11:00,
2013-01-15 21:16:00,32.7,25.7,30.19,WSW,248,0.0,0.0,75,0.00,,---,0.00,VWS V14.01,2013-01-16 02:16:00,
2013-01-15 21:21:00,32.7,25.7,30.16,WSW,248,0.0,0.0,75,0.00,,---,0.00,VWS V14.01,2013-01-16 02:21:00,
2013-01-15 21:26:00,32.7,25.7,30.16,WSW,248,0.0,0.0,75,0.00,,---,0.00,VWS V14.01,2013-01-16 02:26:00,
2013-01-15 21:31:00,32.7,25.7,30.16,ESE,123,0.0,0.0,75,0.00,,---,0.00,VWS V14.01,2013-01-16 02:31:00,
2013-01-15 21:36:00,32.7,25.7,30.16,ESE,119,0.0,0.0,75,0.00,,---,0.00,VWS V14.01,2013-01-16 02:36:00,
2013-01-15 21:41:00,32.7,25.7,30.16,ESE,119,3.6,3.6,75,0.00,,---,0.00,VWS V14.01,2013-01-16 02:41:00,
2013-01-15 21:46:00,32.7,25.4,30.16,ESE,108,3.1,3.6,74,0.00,,---,0.00,VWS V14.01,2013-01-16 02:46:00,
2013-01-15 21:51:00,32.7,25.4,30.16,ESE,107,0.0,0.0,74,0.00,,---,0.00,VWS V14.01,2013-01-16 02:51:00,
2013-01-15 21:56:00,32.7,25.0,30.16,ESE,121,0.0,0.0,73,0.00,,---,0.00,VWS V14.01,2013-01-16 02:56:00,
2013-01-15 22:01:00,32.7,25.0,30.16,East,98,0.0,0.0,73,0.00,,---,0.00,VWS V14.01,2013-01-16 03:01:00,
2013-01-15 22:06:00,32.7,24.7,30.16,ESE,121,0.0,0.0,72,0.00,,---,0.00,VWS V14.01,2013-01-16 03:06:00,
2013-01-15 22:11:00,32.7,24.7,30.16,ESE,120,0.0,0.0,72,0.00,,---,0.00,VWS V14.01,2013-01-16 03:11:00,
2013-01-15 22:16:00,32.7,24.7,30.16,ESE,121,0.0,0.0,72,0.00,,---,0.00,VWS V14.01,2013-01-16 03:16:00,
2013-01-15 22:21:00,32.7,24.7,30.16,ESE,120,0.0,0.0,72,0.00,,---,0.00,VWS V14.01,2013-01-16 03:21:00,
2013-01-15 22:26:00,32.7,24.7,30.16,ESE,120,0.0,0.0,72,0.00,,---,0.00,VWS V14.01,2013-01-16 03:26:00,
2013-01-15 22:31:00,32.7,24.7,30.16,ESE,120,0.0,0.0,72,0.00,,---,0.00,VWS V14.01,2013-01-16 03:31:00,
2013-01-15 22:36:00,32.7,24.7,30.16,ESE,120,0.0,0.0,72,0.00,,---,0.00,VWS V14.01,2013-01-16 03:36:00,
2013-01-15 22:41:00,32.7,25.0,30.16,WSW,238,4.5,4.5,73,0.00,,---,0.00,VWS V14.01,2013-01-16 03:41:00,
2013-01-15 22:46:00,32.9,24.9,30.16,SW,217,4.5,4.9,72,0.00,,---,0.00,VWS V14.01,2013-01-16 03:46:00,
2013-01-15 22:51:00,32.7,25.0,30.16,SW,214,0.0,5.4,73,0.00,,---,0.00,VWS V14.01,2013-01-16 03:51:00,
2013-01-15 22:56:00,32.7,25.4,30.16,SSW,211,0.0,0.0,74,0.00,,---,0.00,VWS V14.01,2013-01-16 03:56:00,
2013-01-15 23:01:00,32.5,25.5,30.16,West,270,3.6,3.6,75,0.00,,---,0.00,VWS V14.01,2013-01-16 04:01:00,
2013-01-15 23:06:00,32.2,25.2,30.13,SSW,203,4.0,6.3,75,0.00,,---,0.00,VWS V14.01,2013-01-16 04:06:00,
2013-01-15 23:11:00,31.8,25.1,30.13,SSW,206,4.5,5.4,76,0.00,,---,0.00,VWS V14.01,2013-01-16 04:11:00,
2013-01-15 23:16:00,31.5,25.1,30.13,SSW,210,3.6,5.4,77,0.00,,---,0.00,VWS V14.01,2013-01-16 04:16:00,
2013-01-15 23:20:00,31.1,25.4,30.13,SSW,205,4.5,5.4,79,0.00,,---,0.00,VWS V14.01,2013-01-16 04:20:00,
2013-01-15 23:25:00,30.9,25.5,30.13,SSW,193,3.1,4.0,80,0.00,,---,0.00,VWS V14.01,2013-01-16 04:25:00,
2013-01-15 23:30:00,30.6,25.7,30.13,SW,226,2.7,4.9,82,0.00,,---,0.00,VWS V14.01,2013-01-16 04:30:00,
2013-01-15 23:35:00,30.4,26.1,30.13,South,178,0.0,4.9,84,0.00,,---,0.00,VWS V14.01,2013-01-16 04:35:00,
2013-01-15 23:40:00,30.4,26.4,30.13,SSW,198,0.0,0.0,85,0.00,,---,0.00,VWS V14.01,2013-01-16 04:40:00,
2013-01-15 23:46:00,30.4,26.7,30.13,SW,234,4.9,5.4,86,0.00,,---,0.00,VWS V14.01,2013-01-16 04:46:00,
2013-01-15 23:50:00,30.2,26.5,30.13,SSW,198,0.0,0.0,86,0.00,,---,0.00,VWS V14.01,2013-01-16 04:50:00,
2013-01-15 23:55:00,30.2,26.8,30.13,SSW,192,0.0,0.0,87,0.00,,---,0.00,VWS V14.01,2013-01-16 04:55:00,